| Date | Time | Temp. (oF) | Dew Point (oF) | Rel. Hum. (%) | Press. (in.) | Wind Dir. | Wind Speed (mph) | Hourly Rainfall (in.) |
|
|---|---|---|---|---|---|---|---|---|---|
| 1 | 01/28 | 00:00 | 17 | 7 | 65 | 29.97 | NNW | 10 | 0.00 |
| 2 | 01/27 | 23:00 | 18 | 7 | 63 | 29.95 | N | 14 | 0.00 |
| 3 | 01/27 | 22:00 | 22 | 7 | 52 | 29.91 | NNW | 16 | 0.00 |
| 4 | 01/27 | 21:00 | 25 | 7 | 47 | 29.87 | NNW | 9 | 0.00 |
| 5 | 01/27 | 20:00 | 26 | 15 | 63 | 29.84 | WNW | 6 | 0.00 |
| 6 | 01/27 | 19:00 | 26 | 17 | 69 | 29.80 | W | 5 | 0.00 |
| 7 | 01/27 | 18:00 | 28 | 18 | 66 | 29.77 | WNW | 10 | 0.00 |
| 8 | 01/27 | 17:00 | 30 | 16 | 57 | 29.74 | W | 8 | 0.00 |
| 9 | 01/27 | 16:00 | 30 | 15 | 55 | 29.72 | W | 17 | 0.00 |
| 10 | 01/27 | 15:00 | 29 | 15 | 56 | 29.72 | N | 14 | 0.00 |
| 11 | 01/27 | 14:00 | 29 | 16 | 59 | 29.73 | NW | 15 | 0.00 |
| 12 | 01/27 | 13:00 | 28 | 17 | 64 | 29.76 | WNW | 7 | 0.00 |
| 13 | 01/27 | 12:00 | 27 | 19 | 73 | 29.78 | NNW | 16 | 0.00 |
| 14 | 01/27 | 11:00 | 26 | 19 | 76 | 29.79 | NNW | 5 | 0.00 |
| 15 | miss | miss | miss | miss | miss | miss | miss | miss | |
| 16 | 01/27 | 10:14 | 26 | 20 | 78 | 29.79 | S | 6 | 0.00 |
| 17 | miss | miss | miss | miss | miss | miss | miss | miss | |
| 18 | 01/27 | 10:12 | 26 | 20 | 80 | 29.79 | N | 5 | 0.00 |
| 19 | miss | miss | miss | miss | miss | miss | miss | miss | |
| 20 | 01/27 | 10:10 | 26 | 20 | 80 | 29.78 | NNW | 5 | 0.00 |
| 21 | miss | miss | miss | miss | miss | miss | miss | miss | |
| 22 | 01/27 | 10:08 | 25 | 19 | 81 | 29.78 | N | 10 | 0.00 |
| 23 | miss | miss | miss | miss | miss | miss | miss | miss | |
| 24 | 01/27 | 10:06 | 25 | 19 | 80 | 29.78 | NNW | 12 | 0.00 |
| 25 | miss | miss | miss | miss | miss | miss | miss | miss | |
| 26 | 01/27 | 10:05 | 25 | 19 | 80 | 29.78 | WNW | 11 | 0.00 |
| 27 | miss | miss | miss | miss | miss | miss | miss | miss | |
| 28 | 01/27 | 10:05 | 25 | 19 | 80 | 29.78 | WNW | 11 | 0.00 |
| 29 | miss | miss | miss | miss | miss | miss | miss | miss | |
| 30 | 01/27 | 10:05 | 25 | 19 | 80 | 29.78 | WNW | 11 | 0.00 |
| 31 | miss | miss | miss | miss | miss | miss | miss | miss | |
| 32 | 01/27 | 10:05 | 25 | 19 | 80 | 29.78 | WNW | 11 | 0.00 |
| 33 | miss | miss | miss | miss | miss | miss | miss | miss | |
| 34 | 01/27 | 10:05 | 25 | 19 | 80 | 29.78 | WNW | 11 | 0.00 |
| 35 | miss | miss | miss | miss | miss | miss | miss | miss | |
| 36 | 01/27 | 10:05 | 25 | 19 | 80 | 29.78 | WNW | 11 | 0.00 |
| 37 | miss | miss | miss | miss | miss | miss | miss | miss | |
| 38 | 01/27 | 10:05 | 25 | 19 | 80 | 29.78 | WNW | 11 | 0.00 |
| 39 | 01/27 | 10:00 | 25 | 19 | 81 | 29.78 | NNW | 7 | 0.00 |
| 40 | 01/27 | 09:00 | 25 | 23 | 92 | 29.77 | NNW | 3 | 0.00 |
| 41 | 01/27 | 08:00 | 24 | 22 | 92 | 29.76 | N | 5 | 0.00 |
| 42 | 01/27 | 07:00 | 24 | 22 | 95 | 29.75 | NW | 4 | 0.00 |
| 43 | 01/27 | 06:00 | 24 | 22 | 94 | 29.75 | NNW | 7 | 0.00 |
| 44 | 01/27 | 05:00 | 24 | 21 | 89 | 29.73 | N | 4 | 0.00 |
| 45 | 01/27 | 04:00 | 24 | 21 | 89 | 29.72 | NNW | 7 | 0.00 |
| 46 | 01/27 | 03:00 | 25 | 23 | 92 | 29.73 | N | 9 | 0.00 |
| 47 | 01/27 | 02:00 | 25 | 21 | 88 | 29.73 | NNE | 4 | 0.00 |
| 48 | 01/27 | 01:00 | 24 | 21 | 91 | 29.73 | N | 6 | 0.00 |
| 49 | 01/27 | 00:00 | 23 | 20 | 91 | 29.73 | NNE | 6 | 0.00 |
| 50 | 01/26 | 23:00 | 23 | 21 | 94 | 29.75 | NE | 7 | 0.00 |
| 51 | 01/26 | 22:00 | 22 | 21 | 96 | 29.75 | NNE | 5 | 0.00 |
| 52 | 01/26 | 21:00 | 21 | 20 | 99 | 29.75 | NNE | 6 | 0.00 |
| 53 | 01/26 | 20:00 | 21 | 20 | 99 | 29.77 | NNE | 8 | 0.00 |
| 54 | 01/26 | 19:00 | 21 | 20 | 99 | 29.77 | N | 4 | 0.01 |
| 55 | 01/26 | 18:00 | 22 | 21 | 99 | 29.77 | NE | 4 | 0.00 |
| 56 | 01/26 | 17:00 | 22 | 21 | 99 | 29.75 | NE | 8 | 0.00 |
| 57 | 01/26 | 16:00 | 24 | 23 | 99 | 29.75 | E | 4 | 0.01 |
| 58 | 01/26 | 15:00 | 25 | 24 | 96 | 29.75 | ENE | 9 | 0.00 |
| 59 | 01/26 | 14:00 | 24 | 23 | 97 | 29.76 | E | 4 | 0.00 |
| 60 | 01/26 | 13:00 | 24 | 23 | 97 | 29.78 | NE | 7 | 0.00 |
| 61 | 01/26 | 12:00 | 23 | 21 | 95 | 29.81 | ENE | 5 | 0.00 |
| 62 | 01/26 | 11:00 | 24 | 22 | 95 | 29.85 | ENE | 4 | 0.00 |
| 63 | 01/26 | 10:00 | 23 | 22 | 97 | 29.86 | ENE | 8 | 0.00 |
| 64 | 01/26 | 09:00 | 24 | 23 | 96 | 29.86 | ENE | 7 | 0.00 |
| 65 | 01/26 | 08:00 | 24 | 23 | 97 | 29.86 | ENE | 9 | 0.00 |
| 66 | 01/26 | 07:00 | 24 | 23 | 98 | 29.86 | ESE | 7 | 0.00 |
| 67 | 01/26 | 06:00 | 24 | 23 | 98 | 29.86 | ESE | 7 | 0.00 |
| 68 | 01/26 | 05:00 | 24 | 23 | 99 | 29.87 | SE | 6 | 0.00 |
| 69 | 01/26 | 04:00 | 25 | 24 | 98 | 29.88 | E | 7 | 0.00 |
| 70 | 01/26 | 03:00 | 27 | 26 | 97 | 29.89 | E | 7 | 0.03 |
| 71 | 01/26 | 02:00 | 27 | 26 | 97 | 29.90 | NE | 3 | 0.03 |
| 72 | 01/26 | 01:00 | 29 | 28 | 97 | 29.88 | E | 7 | 0.03 |
| 73 | 01/26 | 00:00 | 31 | 29 | 96 | 29.89 | ENE | 6 | -0.11 |